Terminal Aerodrome Forecast
Issued by NWS

Current Version | Previous Version | Text Only | Print | Product List | Glossary On
Versions: 1 2 3 4 5 6 7 8 9 10 11 12 13 14 15 16 17 18 19 20 21 22 23 24 25 26 27 28 29 30 31 32 33 34 35 36
627
FTAK31 PAFA 252046 AAA
TAFAGA
TAF AMD
PAGA 252046Z 2521/2618 15022G27KT P6SM SCT040 SCT100
     FM252300 16012G20KT P6SM -SHRA SCT025 BKN040 OVC100
     FM261000 14010KT P6SM VCSH SCT015 BKN035 OVC050=

USA.gov is the U.S. government's official web portal to all federal, state and local government web resources and services.